Daihatsumaru — JD2764 — position and weather

sailwx.info

Track history (hours):
 
Tides and Currents Weather Stations Pressure Air Temp Water Temp Dewpoint Dewpoint Depression Visibility Wind Speed Wind Dir Waves Ship Positions

Daihatsumaru

Last reported at 2015-Jul-04 04:29 UTC. Time now 2015-Jul-04 17:06 UTC.
Position N 34°37' E 134°57'.

Length 106 m; draft 4.5 m.

Type: Cargo ship. MMSI: 431000701.

Date/timePositionNaut miles runAvg speedWind from/ knotsBaromVisibWave heightAir tempDewpointWater temp
2015-Jul-04 04:29N 34°37' E 134°57'1213.4
2015-Jul-04 03:33N 34°36' E 135°12'1110.5
2015-Jul-04 02:32N 34°41' E 135°23'0 0.0
2015-Jul-04 01:32N 34°41' E 135°23'0 0.0
2015-Jul-04 00:32N 34°41' E 135°23'0 0.0
2015-Jul-03 23:32N 34°41' E 135°23'1 0.9
2015-Jul-03 22:33N 34°41' E 135°22'2 1.5
2015-Jul-03 21:32N 34°40' E 135°21'0 0.0
2015-Jul-03 20:32N 34°40' E 135°21'0 0.0
2015-Jul-03 19:26N 34°40' E 135°21'0 0.2
2015-Jul-03 18:33N 34°40' E 135°21'1414.3
2015-Jul-03 17:34N 34°35' E 135°04'12 0.3
2015-Jul-02 04:33N 34°35' E 134°50'1111.4
2015-Jul-02 03:33N 34°36' E 135°04'1514.7
2015-Jul-02 02:33N 34°40' E 135°21'2 2.0
2015-Jul-02 01:31N 34°41' E 135°23'0 0.0
2015-Jul-02 00:31N 34°41' E 135°23'0 0.0
2015-Jul-01 23:25N 34°41' E 135°23'0 0.0
2015-Jul-01 22:33N 34°41' E 135°23'3 3.2
2015-Jul-01 21:30N 34°40' E 135°20'0 0.0
2015-Jul-01 20:30N 34°39' E 135°20'0 0.0
2015-Jul-01 19:30N 34°39' E 135°20'0 0.0
2015-Jul-01 18:33N 34°39' E 135°20'6 5.7
2015-Jul-01 17:33N 34°36' E 135°15'1515.4
2015-Jul-01 16:33N 34°36' E 134°56'1 0.0
2015-Jun-30 04:14N 34°36' E 134°54'811.1
2015-Jun-30 03:33N 34°36' E 135°03'1414.4
2015-Jun-30 02:33N 34°40' E 135°20'3 2.7
2015-Jun-30 01:29N 34°41' E 135°23'0 0.0
2015-Jun-30 00:29N 34°41' E 135°23'0 0.0
2015-Jun-29 23:29N 34°41' E 135°23'0 0.0
2015-Jun-29 22:17N 34°41' E 135°23'0 0.0
2015-Jun-29 21:29N 34°41' E 135°23'0 0.0
2015-Jun-29 20:29N 34°41' E 135°23'0 0.0
2015-Jun-29 19:29N 34°41' E 135°23'0 0.0
2015-Jun-29 18:29N 34°41' E 135°23'0 0.0
2015-Jun-29 17:17N 34°41' E 135°23'0 0.0
2015-Jun-29 16:29N 34°41' E 135°23'0 0.0
2015-Jun-29 15:29N 34°41' E 135°23'0 0.0
2015-Jun-29 14:29N 34°41' E 135°23'0 0.0
2015-Jun-29 13:23N 34°41' E 135°23'0 0.0
2015-Jun-29 12:29N 34°41' E 135°23'0 0.0
2015-Jun-29 11:05N 34°41' E 135°23'0 0.0
2015-Jun-29 10:29N 34°41' E 135°23'0 0.0
2015-Jun-29 09:29N 34°41' E 135°23'0 0.0
2015-Jun-29 08:23N 34°41' E 135°23'0 0.0
2015-Jun-29 07:29N 34°41' E 135°23'0 0.0
2015-Jun-29 06:29N 34°41' E 135°23'0 0.0
2015-Jun-29 05:29N 34°41' E 135°23'0 0.0
2015-Jun-29 04:23N 34°41' E 135°23'0 0.0
2015-Jun-29 03:17N 34°41' E 135°23'0 0.0
2015-Jun-29 02:29N 34°41' E 135°23'0 0.0
2015-Jun-29 01:29N 34°41' E 135°23'0 0.0
2015-Jun-29 00:29N 34°41' E 135°23'0 0.0
2015-Jun-28 23:29N 34°41' E 135°23'2 2.1
2015-Jun-28 22:33N 34°40' E 135°21'0 0.5
2015-Jun-28 21:31N 34°40' E 135°21'0 0.0
2015-Jun-28 20:31N 34°40' E 135°21'0 0.0
2015-Jun-28 19:31N 34°40' E 135°21'0 0.0
2015-Jun-28 18:31N 34°40' E 135°21'0 0.0
2015-Jun-28 17:31N 34°40' E 135°21'0 0.0
2015-Jun-28 16:25N 34°40' E 135°21'0 0.0
2015-Jun-28 15:31N 34°40' E 135°21'0 0.0
2015-Jun-28 14:31N 34°40' E 135°21'0 0.0
2015-Jun-28 13:31N 34°40' E 135°21'0 0.0
2015-Jun-28 12:31N 34°40' E 135°21'0 0.0
2015-Jun-28 11:31N 34°40' E 135°21'0 0.0
2015-Jun-28 10:31N 34°40' E 135°21'0 0.0
2015-Jun-28 09:31N 34°40' E 135°21'0 0.0
2015-Jun-28 08:31N 34°40' E 135°21'0 0.0
2015-Jun-28 07:31N 34°40' E 135°21'0 0.0
2015-Jun-28 06:31N 34°40' E 135°21'7 7.9
2015-Jun-28 05:33N 34°35' E 135°14'1515.0
2015-Jun-28 04:33N 34°36' E 134°56'4 0.1
2015-Jun-26 05:10N 34°35' E 134°51'915.5
2015-Jun-26 04:33N 34°37' E 135°02'1515.2
2015-Jun-26 03:33N 34°39' E 135°20'3 2.9
2015-Jun-26 02:29N 34°41' E 135°23'0 0.0
2015-Jun-26 01:29N 34°41' E 135°23'0 0.0
2015-Jun-26 00:29N 34°41' E 135°23'0 0.0
2015-Jun-25 23:29N 34°41' E 135°23'2 1.6
2015-Jun-25 22:33N 34°40' E 135°22'1 0.9
2015-Jun-25 21:29N 34°40' E 135°21'0 0.0
2015-Jun-25 20:23N 34°40' E 135°21'7 8.8
2015-Jun-25 19:33N 34°35' E 135°14'1313.3
2015-Jun-25 18:33N 34°36' E 134°58'5 0.1
2015-Jun-24 05:24N 34°35' E 134°51'1315.0
2015-Jun-24 04:33N 34°36' E 135°07'  
Track history (hours):
 
Tides and Currents Weather Stations Pressure Air Temp Water Temp Dewpoint Dewpoint Depression Visibility Wind Speed Wind Dir Waves Ship Positions

Daihatsumaru

Last reported at 2015-Jul-04 04:29 UTC. Time now 2015-Jul-04 17:06 UTC.
Position N 34°37' E 134°57'.

Length 106 m; draft 4.5 m.

Type: Cargo ship. MMSI: 431000701.

Date/timePositionNaut miles runAvg speedWind from/ knotsBaromVisibWave heightAir tempDewpointWater temp
2015-Jul-04 04:29N 34°37' E 134°57'1213.4
2015-Jul-04 03:33N 34°36' E 135°12'1110.5
2015-Jul-04 02:32N 34°41' E 135°23'0 0.0
2015-Jul-04 01:32N 34°41' E 135°23'0 0.0
2015-Jul-04 00:32N 34°41' E 135°23'0 0.0
2015-Jul-03 23:32N 34°41' E 135°23'1 0.9
2015-Jul-03 22:33N 34°41' E 135°22'2 1.5
2015-Jul-03 21:32N 34°40' E 135°21'0 0.0
2015-Jul-03 20:32N 34°40' E 135°21'0 0.0
2015-Jul-03 19:26N 34°40' E 135°21'0 0.2
2015-Jul-03 18:33N 34°40' E 135°21'1414.3
2015-Jul-03 17:34N 34°35' E 135°04'12 0.3
2015-Jul-02 04:33N 34°35' E 134°50'1111.4
2015-Jul-02 03:33N 34°36' E 135°04'1514.7
2015-Jul-02 02:33N 34°40' E 135°21'2 2.0
2015-Jul-02 01:31N 34°41' E 135°23'0 0.0
2015-Jul-02 00:31N 34°41' E 135°23'0 0.0
2015-Jul-01 23:25N 34°41' E 135°23'0 0.0
2015-Jul-01 22:33N 34°41' E 135°23'3 3.2
2015-Jul-01 21:30N 34°40' E 135°20'0 0.0
2015-Jul-01 20:30N 34°39' E 135°20'0 0.0
2015-Jul-01 19:30N 34°39' E 135°20'0 0.0
2015-Jul-01 18:33N 34°39' E 135°20'6 5.7
2015-Jul-01 17:33N 34°36' E 135°15'1515.4
2015-Jul-01 16:33N 34°36' E 134°56'1 0.0
2015-Jun-30 04:14N 34°36' E 134°54'811.1
2015-Jun-30 03:33N 34°36' E 135°03'1414.4
2015-Jun-30 02:33N 34°40' E 135°20'3 2.7
2015-Jun-30 01:29N 34°41' E 135°23'0 0.0
2015-Jun-30 00:29N 34°41' E 135°23'0 0.0
2015-Jun-29 23:29N 34°41' E 135°23'0 0.0
2015-Jun-29 22:17N 34°41' E 135°23'0 0.0
2015-Jun-29 21:29N 34°41' E 135°23'0 0.0
2015-Jun-29 20:29N 34°41' E 135°23'0 0.0
2015-Jun-29 19:29N 34°41' E 135°23'0 0.0
2015-Jun-29 18:29N 34°41' E 135°23'0 0.0
2015-Jun-29 17:17N 34°41' E 135°23'0 0.0
2015-Jun-29 16:29N 34°41' E 135°23'0 0.0
2015-Jun-29 15:29N 34°41' E 135°23'0 0.0
2015-Jun-29 14:29N 34°41' E 135°23'0 0.0
2015-Jun-29 13:23N 34°41' E 135°23'0 0.0
2015-Jun-29 12:29N 34°41' E 135°23'0 0.0
2015-Jun-29 11:05N 34°41' E 135°23'0 0.0
2015-Jun-29 10:29N 34°41' E 135°23'0 0.0
2015-Jun-29 09:29N 34°41' E 135°23'0 0.0
2015-Jun-29 08:23N 34°41' E 135°23'0 0.0
2015-Jun-29 07:29N 34°41' E 135°23'0 0.0
2015-Jun-29 06:29N 34°41' E 135°23'0 0.0
2015-Jun-29 05:29N 34°41' E 135°23'0 0.0
2015-Jun-29 04:23N 34°41' E 135°23'0 0.0
2015-Jun-29 03:17N 34°41' E 135°23'0 0.0
2015-Jun-29 02:29N 34°41' E 135°23'0 0.0
2015-Jun-29 01:29N 34°41' E 135°23'0 0.0
2015-Jun-29 00:29N 34°41' E 135°23'0 0.0
2015-Jun-28 23:29N 34°41' E 135°23'2 2.1
2015-Jun-28 22:33N 34°40' E 135°21'0 0.5
2015-Jun-28 21:31N 34°40' E 135°21'0 0.0
2015-Jun-28 20:31N 34°40' E 135°21'0 0.0
2015-Jun-28 19:31N 34°40' E 135°21'0 0.0
2015-Jun-28 18:31N 34°40' E 135°21'0 0.0
2015-Jun-28 17:31N 34°40' E 135°21'0 0.0
2015-Jun-28 16:25N 34°40' E 135°21'0 0.0
2015-Jun-28 15:31N 34°40' E 135°21'0 0.0
2015-Jun-28 14:31N 34°40' E 135°21'0 0.0
2015-Jun-28 13:31N 34°40' E 135°21'0 0.0
2015-Jun-28 12:31N 34°40' E 135°21'0 0.0
2015-Jun-28 11:31N 34°40' E 135°21'0 0.0
2015-Jun-28 10:31N 34°40' E 135°21'0 0.0
2015-Jun-28 09:31N 34°40' E 135°21'0 0.0
2015-Jun-28 08:31N 34°40' E 135°21'0 0.0
2015-Jun-28 07:31N 34°40' E 135°21'0 0.0
2015-Jun-28 06:31N 34°40' E 135°21'7 7.9
2015-Jun-28 05:33N 34°35' E 135°14'1515.0
2015-Jun-28 04:33N 34°36' E 134°56'4 0.1
2015-Jun-26 05:10N 34°35' E 134°51'915.5
2015-Jun-26 04:33N 34°37' E 135°02'1515.2
2015-Jun-26 03:33N 34°39' E 135°20'3 2.9
2015-Jun-26 02:29N 34°41' E 135°23'0 0.0
2015-Jun-26 01:29N 34°41' E 135°23'0 0.0
2015-Jun-26 00:29N 34°41' E 135°23'0 0.0
2015-Jun-25 23:29N 34°41' E 135°23'2 1.6
2015-Jun-25 22:33N 34°40' E 135°22'1 0.9
2015-Jun-25 21:29N 34°40' E 135°21'0 0.0
2015-Jun-25 20:23N 34°40' E 135°21'7 8.8
2015-Jun-25 19:33N 34°35' E 135°14'1313.3
2015-Jun-25 18:33N 34°36' E 134°58'5 0.1
2015-Jun-24 05:24N 34°35' E 134°51'1315.0
2015-Jun-24 04:33N 34°36' E 135°07'  

Dump ship's entire track history